createdAt,value
2018-10-11T00:01:36.918Z,44.13
2018-10-11T00:04:06.286Z,46.10
2018-10-11T00:06:34.981Z,43.07
2018-10-11T00:09:04.025Z,47.83
2018-10-11T00:11:32.524Z,49.47
2018-10-11T00:14:01.109Z,46.20
2018-10-11T00:16:29.720Z,51.33
2018-10-11T00:18:58.196Z,44.90
2018-10-11T00:21:26.692Z,45.10
2018-10-11T00:23:55.441Z,52.57
2018-10-11T00:26:24.000Z,46.23
2018-10-11T00:28:52.565Z,50.87
2018-10-11T00:31:21.281Z,49.50
2018-10-11T00:33:49.836Z,50.63
2018-10-11T00:36:18.602Z,46.20
2018-10-11T00:38:47.194Z,46.30
2018-10-11T00:41:15.739Z,51.17
2018-10-11T00:43:44.274Z,43.30
2018-10-11T00:46:12.869Z,38.40
2018-10-11T00:48:41.517Z,46.20
2018-10-11T00:51:10.134Z,36.80
2018-10-11T00:53:38.725Z,41.63
2018-10-11T00:56:08.736Z,41.40
2018-10-11T00:58:37.285Z,37.80
2018-10-11T01:01:05.904Z,36.77
2018-10-11T01:03:35.531Z,38.80
2018-10-11T01:06:04.197Z,42.47
2018-10-11T01:08:32.740Z,39.70
2018-10-11T01:11:01.221Z,38.03
2018-10-11T01:13:29.641Z,36.50
2018-10-11T01:15:58.192Z,39.00
2018-10-11T01:18:26.856Z,40.17
2018-10-11T01:20:55.607Z,41.40
2018-10-11T01:23:24.099Z,39.20
2018-10-11T01:25:52.633Z,37.73
2018-10-11T01:28:21.139Z,44.60
2018-10-11T01:30:54.862Z,37.13
2018-10-11T01:33:23.519Z,38.33
2018-10-11T01:35:52.228Z,39.73
2018-10-11T01:38:20.735Z,40.13
2018-10-11T01:40:49.217Z,39.43
2018-10-11T01:43:17.732Z,34.60
2018-10-11T01:45:46.297Z,39.50
2018-10-11T01:48:14.819Z,34.23
2018-10-11T01:50:43.338Z,34.10
2018-10-11T01:53:11.814Z,38.17
2018-10-11T01:55:40.224Z,35.73
2018-10-11T01:58:08.827Z,33.47
2018-10-11T02:00:37.400Z,34.33
2018-10-11T02:03:05.938Z,40.70
2018-10-11T02:05:35.156Z,37.07
2018-10-11T02:08:03.705Z,38.30
2018-10-11T02:10:32.272Z,37.73
2018-10-11T02:13:01.182Z,40.10
2018-10-11T02:15:29.744Z,40.20
2018-10-11T02:17:58.757Z,38.30
2018-10-11T02:20:27.908Z,38.67
2018-10-11T02:22:56.508Z,41.43
2018-10-11T02:25:25.035Z,38.77
2018-10-11T02:27:53.788Z,39.13
2018-10-11T02:30:22.274Z,40.70
2018-10-11T02:32:50.833Z,39.37
2018-10-11T02:35:19.315Z,42.73
2018-10-11T02:37:47.898Z,40.50
2018-10-11T02:40:16.360Z,43.93
2018-10-11T02:42:44.921Z,38.30
2018-10-11T02:45:13.408Z,42.80
2018-10-11T02:47:41.887Z,39.53
2018-10-11T02:50:10.606Z,36.20
2018-10-11T02:52:39.111Z,36.97
2018-10-11T02:55:07.616Z,40.80
2018-10-11T02:57:47.412Z,43.97
2018-10-11T03:00:29.713Z,38.60
2018-10-11T03:03:00.490Z,47.00
2018-10-11T03:05:29.037Z,41.93
2018-10-11T03:07:57.615Z,41.60
2018-10-11T03:10:33.127Z,45.00
2018-10-11T03:13:01.589Z,39.33
2018-10-11T03:15:30.050Z,42.83
2018-10-11T03:17:58.489Z,43.77
2018-10-11T03:20:27.271Z,43.23
2018-10-11T03:22:56.007Z,49.33
2018-10-11T03:25:24.698Z,41.40
2018-10-11T03:27:53.211Z,43.20
2018-10-11T03:30:26.461Z,45.23
2018-10-11T03:32:54.969Z,44.90
2018-10-11T03:35:23.434Z,38.63
2018-10-11T03:37:52.008Z,39.93
2018-10-11T03:40:20.540Z,43.27
2018-10-11T03:42:49.093Z,38.57
2018-10-11T03:45:17.569Z,44.40
2018-10-11T03:47:46.072Z,52.77
2018-10-11T03:50:14.565Z,42.77
2018-10-11T03:52:44.088Z,43.70
2018-10-11T03:55:12.609Z,41.00
2018-10-11T03:57:41.097Z,42.17
2018-10-11T04:00:09.637Z,45.97
2018-10-11T04:02:38.117Z,42.73
2018-10-11T04:05:06.601Z,45.50
2018-10-11T04:07:35.200Z,53.60
2018-10-11T04:10:03.692Z,42.40
2018-10-11T04:12:32.182Z,50.67
2018-10-11T04:15:00.673Z,43.27
2018-10-11T04:17:29.228Z,43.23
2018-10-11T04:19:57.975Z,45.90
2018-10-11T04:22:26.545Z,47.47
2018-10-11T04:24:55.185Z,50.50
2018-10-11T04:27:23.673Z,46.53
2018-10-11T04:29:52.203Z,41.53
2018-10-11T04:32:20.701Z,43.20
2018-10-11T04:34:49.185Z,40.63
2018-10-11T04:37:17.637Z,47.10
2018-10-11T04:39:46.133Z,62.33
2018-10-11T04:42:14.656Z,47.57
2018-10-11T04:44:43.224Z,45.63
2018-10-11T04:47:11.737Z,47.43
2018-10-11T04:49:40.281Z,51.57
2018-10-11T04:52:08.800Z,50.70
2018-10-11T04:54:37.396Z,52.77
2018-10-11T04:57:05.952Z,59.60
2018-10-11T04:59:35.572Z,54.60
2018-10-11T05:02:04.456Z,47.33
2018-10-11T05:04:33.017Z,50.53
2018-10-11T05:07:01.559Z,48.73
2018-10-11T05:09:30.118Z,50.00
2018-10-11T05:11:58.629Z,48.70
2018-10-11T05:14:27.263Z,48.80
2018-10-11T05:16:55.868Z,47.50
2018-10-11T05:19:24.754Z,50.67
2018-10-11T05:21:53.304Z,44.13
2018-10-11T05:24:21.879Z,50.60
2018-10-11T05:26:50.391Z,86.43
2018-10-11T05:29:19.067Z,48.60
2018-10-11T05:31:47.694Z,50.90
2018-10-11T05:34:16.201Z,54.60
2018-10-11T05:36:44.708Z,57.03
2018-10-11T05:39:13.177Z,47.87
2018-10-11T05:41:41.686Z,46.20
2018-10-11T05:44:10.051Z,45.20
2018-10-11T05:46:38.513Z,50.10
2018-10-11T05:49:07.015Z,45.87
2018-10-11T05:51:35.744Z,47.80
2018-10-11T05:54:04.838Z,43.50
2018-10-11T05:56:35.977Z,42.00
2018-10-11T05:59:04.745Z,43.97
2018-10-11T06:01:33.617Z,42.57
2018-10-11T06:04:02.918Z,44.20
2018-10-11T06:06:31.454Z,38.20
2018-10-11T06:09:00.221Z,42.30
2018-10-11T06:11:28.853Z,39.43
2018-10-11T06:13:57.352Z,37.23
2018-10-11T06:16:25.764Z,37.57
2018-10-11T06:18:54.201Z,36.33
2018-10-11T06:21:22.783Z,36.13
2018-10-11T06:23:51.348Z,35.23
2018-10-11T06:26:19.784Z,38.27
2018-10-11T06:28:48.215Z,34.07
2018-10-11T06:31:16.751Z,34.83
2018-10-11T06:33:45.500Z,45.77
2018-10-11T06:36:14.517Z,34.50
2018-10-11T06:38:43.019Z,35.73
2018-10-11T06:41:11.523Z,35.80
2018-10-11T06:43:40.221Z,27.93
2018-10-11T06:46:08.810Z,32.00
2018-10-11T06:48:37.427Z,33.10
2018-10-11T06:51:05.916Z,36.80
2018-10-11T06:53:34.478Z,27.67
2018-10-11T06:56:02.990Z,32.83
2018-10-11T06:58:31.750Z,29.23
2018-10-11T07:01:00.224Z,32.07
2018-10-11T07:03:28.757Z,29.80
2018-10-11T07:05:57.215Z,31.97
2018-10-11T07:08:25.693Z,32.80
2018-10-11T07:10:54.175Z,27.60
2018-10-11T07:13:22.724Z,32.60
2018-10-11T07:15:51.291Z,29.10
2018-10-11T07:18:19.834Z,27.43
2018-10-11T07:20:48.425Z,29.30
2018-10-11T07:23:17.022Z,27.00
2018-10-11T07:25:45.753Z,30.43
2018-10-11T07:28:14.580Z,27.10
2018-10-11T07:30:43.279Z,28.37
2018-10-11T07:33:11.974Z,26.37
2018-10-11T07:35:40.592Z,27.60
2018-10-11T07:38:09.288Z,28.07
2018-10-11T07:40:37.838Z,24.40
2018-10-11T07:43:06.442Z,27.27
2018-10-11T07:45:34.945Z,27.13
2018-10-11T07:48:03.456Z,29.10
2018-10-11T07:50:31.964Z,23.50
2018-10-11T07:53:00.553Z,21.30
2018-10-11T07:55:29.035Z,27.13
2018-10-11T07:57:57.548Z,22.97
2018-10-11T08:00:26.121Z,24.20
2018-10-11T08:02:54.734Z,26.07
2018-10-11T08:05:23.271Z,23.00
2018-10-11T08:07:51.835Z,26.07
2018-10-11T08:10:20.386Z,22.90
2018-10-11T08:12:48.833Z,23.17
2018-10-11T08:15:17.302Z,22.93
2018-10-11T08:17:46.106Z,21.87
2018-10-11T08:20:14.392Z,23.00
2018-10-11T08:22:42.788Z,22.03
2018-10-11T08:25:11.419Z,21.60
2018-10-11T08:27:39.813Z,22.57
2018-10-11T08:30:08.468Z,19.97
2018-10-11T08:32:37.144Z,16.30
2018-10-11T08:35:05.838Z,18.13
2018-10-11T08:37:34.524Z,16.50
2018-10-11T08:40:02.951Z,17.50
2018-10-11T08:42:31.449Z,15.50
2018-10-11T08:44:59.914Z,17.30
2018-10-11T08:47:28.403Z,15.00
2018-10-11T08:49:56.860Z,15.30
2018-10-11T08:52:25.355Z,14.77
2018-10-11T08:54:54.040Z,15.93
2018-10-11T08:57:22.933Z,18.10
2018-10-11T08:59:51.473Z,18.50
2018-10-11T09:02:20.084Z,16.20
2018-10-11T09:04:48.626Z,14.93
2018-10-11T09:07:17.226Z,14.77
2018-10-11T09:09:53.436Z,20.27
2018-10-11T09:12:14.609Z,16.50
2018-10-11T09:14:43.157Z,19.90
2018-10-11T09:17:11.615Z,15.13
2018-10-11T09:19:40.156Z,17.27
2018-10-11T09:22:08.576Z,16.10
2018-10-11T09:24:37.021Z,15.90
2018-10-11T09:27:05.493Z,13.17
2018-10-11T09:29:34.073Z,19.90
2018-10-11T09:32:02.593Z,17.13
2018-10-11T09:34:31.360Z,16.13
2018-10-11T09:37:00.039Z,18.33
2018-10-11T09:39:28.534Z,15.77
2018-10-11T09:41:57.048Z,15.10
2018-10-11T09:44:25.530Z,14.70
2018-10-11T09:46:54.158Z,13.90
2018-10-11T09:49:22.669Z,16.70
2018-10-11T09:51:51.230Z,15.77
2018-10-11T09:54:19.763Z,12.67
2018-10-11T09:57:25.639Z,15.17
2018-10-11T09:59:54.281Z,14.70
2018-10-11T10:02:23.709Z,14.57
2018-10-11T10:04:53.733Z,12.20
2018-10-11T10:07:22.429Z,9.97
2018-10-11T10:09:51.051Z,20.50
2018-10-11T10:12:19.674Z,12.60
2018-10-11T10:14:48.854Z,9.83
2018-10-11T10:17:17.408Z,9.57
2018-10-11T10:19:46.246Z,11.57
2018-10-11T10:22:14.745Z,10.40
2018-10-11T10:24:43.233Z,9.33
2018-10-11T10:27:11.853Z,9.77
2018-10-11T10:29:40.353Z,10.10
2018-10-11T10:32:08.996Z,11.40
2018-10-11T10:34:37.492Z,10.00
2018-10-11T10:37:06.180Z,14.00
2018-10-11T10:39:35.666Z,9.87
2018-10-11T10:42:08.210Z,13.23
2018-10-11T10:44:45.370Z,12.30
2018-10-11T10:47:16.720Z,12.30
2018-10-11T10:49:47.843Z,12.33
2018-10-11T10:52:23.111Z,13.10
2018-10-11T10:54:53.140Z,14.50
2018-10-11T10:57:22.346Z,11.83
2018-10-11T10:59:55.870Z,13.37
2018-10-11T11:02:24.659Z,13.73
2018-10-11T11:04:53.688Z,14.27
2018-10-11T11:07:24.930Z,11.30
2018-10-11T11:09:54.576Z,11.53
2018-10-11T11:12:23.238Z,11.90
2018-10-11T11:14:53.861Z,13.10
2018-10-11T11:17:22.525Z,18.23
2018-10-11T11:19:52.944Z,13.17
2018-10-11T11:22:21.687Z,10.63
2018-10-11T11:24:50.354Z,11.20
2018-10-11T11:27:19.157Z,17.37
2018-10-11T11:29:47.814Z,12.00
2018-10-11T11:32:19.561Z,9.50
2018-10-11T11:34:48.543Z,9.00
2018-10-11T11:37:20.410Z,11.30
2018-10-11T11:39:50.231Z,8.67
2018-10-11T11:42:20.548Z,9.50
2018-10-11T11:44:50.435Z,12.27
2018-10-11T11:47:21.245Z,10.40
2018-10-11T11:49:51.847Z,16.93
2018-10-11T11:52:24.456Z,7.27
2018-10-11T11:54:53.130Z,7.60
2018-10-11T11:57:21.539Z,10.50
2018-10-11T11:59:52.151Z,6.50
2018-10-11T12:02:21.863Z,10.73
2018-10-11T12:04:52.656Z,13.07
2018-10-11T12:07:21.413Z,12.87
2018-10-11T12:09:50.458Z,25.90
2018-10-11T12:13:08.695Z,11.73
2018-10-11T12:15:38.415Z,11.60
2018-10-11T12:18:07.669Z,13.40
2018-10-11T12:20:37.354Z,12.60
2018-10-11T12:23:06.929Z,14.40
2018-10-11T12:25:37.354Z,13.20
2018-10-11T12:28:05.942Z,14.07
2018-10-11T12:30:34.761Z,13.80
2018-10-11T12:33:04.135Z,14.33
2018-10-11T12:35:32.770Z,15.50
2018-10-11T12:38:03.556Z,17.67
2018-10-11T12:40:35.990Z,15.20
2018-10-11T12:43:04.713Z,16.07
2018-10-11T12:45:41.562Z,16.20
2018-10-11T12:48:11.564Z,23.27
2018-10-11T12:50:40.624Z,17.00
2018-10-11T12:53:11.087Z,17.57
2018-10-11T12:55:43.881Z,17.70
2018-10-11T12:58:12.551Z,18.20
2018-10-11T13:00:41.537Z,21.83
2018-10-11T13:03:16.469Z,22.13
2018-10-11T13:05:45.190Z,18.90
2018-10-11T13:08:15.548Z,24.43
2018-10-11T13:10:45.500Z,18.47
2018-10-11T13:13:17.201Z,18.03
2018-10-11T13:15:46.335Z,20.67
2018-10-11T13:18:15.788Z,20.87
2018-10-11T13:20:44.654Z,22.50
2018-10-11T13:23:18.527Z,22.53
2018-10-11T13:25:46.793Z,23.90
2018-10-11T13:28:16.492Z,20.07
2018-10-11T13:30:46.799Z,20.47
2018-10-11T13:33:30.940Z,21.53
2018-10-11T13:36:01.645Z,20.70
2018-10-11T13:38:32.760Z,17.97
2018-10-11T13:41:03.702Z,21.20
2018-10-11T13:43:31.540Z,17.80
2018-10-11T13:46:02.994Z,22.53
2018-10-11T13:48:32.510Z,27.97
2018-10-11T13:51:02.348Z,20.10
2018-10-11T13:53:31.136Z,19.83
2018-10-11T13:56:01.377Z,20.90
2018-10-11T13:58:30.152Z,20.57
2018-10-11T14:00:58.843Z,18.23
2018-10-11T14:03:27.475Z,22.60
2018-10-11T14:05:57.166Z,21.77
2018-10-11T14:08:27.448Z,21.00
2018-10-11T14:10:56.822Z,23.47
2018-10-11T14:13:29.030Z,19.73
2018-10-11T14:15:57.886Z,24.93
2018-10-11T14:18:29.063Z,22.10
2018-10-11T14:21:00.093Z,21.27
2018-10-11T14:23:29.956Z,18.07
2018-10-11T14:25:58.335Z,19.73
2018-10-11T14:28:29.079Z,17.20
2018-10-11T14:30:57.686Z,33.40
2018-10-11T14:33:28.357Z,18.60
2018-10-11T14:35:57.553Z,17.83
2018-10-11T14:38:30.508Z,19.80
2018-10-11T14:41:00.144Z,18.73
2018-10-11T14:43:33.162Z,20.40
2018-10-11T14:46:02.814Z,18.50
2018-10-11T14:48:32.433Z,24.77
2018-10-11T14:51:01.603Z,20.47
2018-10-11T14:53:30.317Z,17.73
2018-10-11T14:56:00.478Z,19.97
2018-10-11T14:58:31.628Z,19.43
2018-10-11T15:01:00.510Z,18.57
2018-10-11T15:03:29.701Z,17.13
2018-10-11T15:05:58.438Z,16.20
2018-10-11T15:08:28.833Z,19.83
2018-10-11T15:10:59.083Z,19.60
2018-10-11T15:13:28.541Z,18.27
2018-10-11T15:15:57.277Z,19.57
2018-10-11T15:18:25.825Z,20.87
2018-10-11T15:20:55.325Z,19.53
2018-10-11T15:23:24.830Z,20.03
2018-10-11T15:25:54.007Z,19.00
2018-10-11T15:28:22.534Z,19.50
2018-10-11T15:30:52.212Z,18.40
2018-10-11T15:33:21.726Z,19.97
2018-10-11T15:35:52.261Z,24.50
2018-10-11T15:38:20.990Z,23.23
2018-10-11T15:40:51.859Z,27.20
2018-10-11T15:43:20.390Z,20.77
2018-10-11T15:45:50.784Z,18.00
2018-10-11T15:48:21.036Z,19.57
2018-10-11T15:50:49.704Z,18.90
2018-10-11T15:53:18.469Z,17.50
2018-10-11T15:55:49.752Z,22.23
2018-10-11T15:58:18.872Z,21.50
2018-10-11T16:00:47.354Z,21.13
2018-10-11T16:03:15.963Z,20.00
2018-10-11T16:05:50.403Z,23.83
2018-10-11T16:08:19.148Z,20.47
2018-10-11T16:10:47.785Z,17.10
2018-10-11T16:13:16.820Z,19.70
2018-10-11T16:15:45.343Z,19.97
2018-10-11T16:18:14.685Z,16.23
2018-10-11T16:20:43.203Z,15.17
2018-10-11T16:23:13.109Z,18.03
2018-10-11T16:25:42.269Z,15.10
2018-10-11T16:28:10.900Z,16.27
2018-10-11T16:30:41.244Z,17.70
2018-10-11T16:33:10.936Z,15.90
2018-10-11T16:35:39.441Z,16.23
2018-10-11T16:38:09.235Z,14.40
2018-10-11T16:40:38.781Z,14.47
2018-10-11T16:43:07.639Z,15.10
2018-10-11T16:45:36.172Z,15.30
2018-10-11T16:48:06.586Z,16.77
2018-10-11T16:50:34.986Z,18.13
2018-10-11T16:53:05.512Z,19.23
2018-10-11T16:55:36.815Z,19.80
2018-10-11T16:58:06.256Z,18.80
2018-10-11T17:00:38.456Z,18.30
2018-10-11T17:03:07.679Z,19.10
2018-10-11T17:05:36.339Z,17.60
2018-10-11T17:08:05.682Z,22.53
2018-10-11T17:10:35.873Z,26.17
2018-10-11T17:13:04.324Z,17.17
2018-10-11T17:15:32.840Z,17.07
2018-10-11T17:18:02.154Z,15.90
2018-10-11T17:20:30.729Z,17.90
2018-10-11T17:22:59.237Z,20.90
2018-10-11T17:25:27.772Z,19.93
2018-10-11T17:28:01.257Z,26.47
2018-10-11T17:30:32.048Z,22.73
2018-10-11T17:33:00.880Z,24.20
2018-10-11T17:35:30.406Z,19.03
2018-10-11T17:37:59.245Z,17.53
2018-10-11T17:40:29.400Z,18.50
2018-10-11T17:42:59.773Z,17.77
2018-10-11T17:45:30.171Z,18.13
2018-10-11T17:47:58.836Z,16.73
2018-10-11T17:50:27.475Z,18.30
2018-10-11T17:53:01.579Z,19.70
2018-10-11T17:55:30.991Z,17.77
2018-10-11T17:58:00.033Z,16.80
2018-10-11T18:00:30.154Z,20.80
2018-10-11T18:02:59.423Z,16.83
2018-10-11T18:05:28.076Z,19.73
2018-10-11T18:07:56.642Z,28.30
2018-10-11T18:10:26.512Z,18.60
2018-10-11T18:12:56.233Z,16.80
2018-10-11T18:15:26.275Z,17.47
2018-10-11T18:17:54.851Z,19.90
2018-10-11T18:20:24.635Z,15.90
2018-10-11T18:22:54.507Z,16.53
2018-10-11T18:25:24.294Z,17.17
2018-10-11T18:27:52.961Z,17.63
2018-10-11T18:30:21.945Z,17.97
2018-10-11T18:32:50.933Z,15.97
2018-10-11T18:35:19.851Z,15.87
2018-10-11T18:37:49.791Z,18.97
2018-10-11T18:40:21.183Z,18.73
2018-10-11T18:42:49.810Z,21.50
2018-10-11T18:45:19.729Z,17.47
2018-10-11T18:47:51.667Z,28.30
2018-10-11T18:50:21.554Z,17.23
2018-10-11T18:52:54.416Z,24.03
2018-10-11T18:55:27.851Z,16.27
2018-10-11T18:57:56.825Z,18.77
2018-10-11T19:00:25.793Z,20.90
2018-10-11T19:02:54.642Z,16.77
2018-10-11T19:05:23.197Z,16.57
2018-10-11T19:07:51.986Z,23.03
2018-10-11T19:10:20.649Z,17.37
2018-10-11T19:12:50.472Z,17.60
2018-10-11T19:15:19.101Z,19.83
2018-10-11T19:17:52.966Z,17.10
2018-10-11T19:20:21.869Z,16.63
2018-10-11T19:22:52.289Z,15.43
2018-10-11T19:25:20.900Z,16.07
2018-10-11T19:27:50.278Z,15.43
2018-10-11T19:30:20.005Z,15.47
2018-10-11T19:32:48.712Z,17.50
2018-10-11T19:35:19.244Z,17.73
2018-10-11T19:37:48.954Z,18.20
2018-10-11T19:40:18.902Z,16.27
2018-10-11T19:42:51.570Z,17.43
2018-10-11T19:45:20.288Z,18.47
2018-10-11T19:47:50.199Z,17.97
2018-10-11T19:50:18.962Z,17.60
2018-10-11T19:52:48.462Z,16.67
2018-10-11T19:55:17.098Z,17.03
2018-10-11T19:57:45.703Z,15.87
2018-10-11T20:00:14.489Z,18.20
2018-10-11T20:02:43.124Z,17.27
2018-10-11T20:05:11.666Z,20.50
2018-10-11T20:07:40.416Z,14.03
2018-10-11T20:10:09.634Z,15.47
2018-10-11T20:12:38.368Z,16.73
2018-10-11T20:15:07.152Z,15.27
2018-10-11T20:17:35.774Z,16.57
2018-10-11T20:20:05.243Z,17.40
2018-10-11T20:22:35.727Z,21.93
2018-10-11T20:25:04.867Z,20.13
2018-10-11T20:27:33.554Z,17.00
2018-10-11T20:30:02.047Z,18.43
2018-10-11T20:32:31.042Z,16.83
2018-10-11T20:34:59.680Z,21.00
2018-10-11T20:37:28.357Z,17.03
2018-10-11T20:39:57.027Z,20.07
2018-10-11T20:42:26.064Z,21.53
2018-10-11T20:44:55.841Z,17.80
2018-10-11T20:47:24.305Z,16.83
2018-10-11T20:49:52.918Z,17.40
2018-10-11T20:52:21.421Z,15.57
2018-10-11T20:54:51.211Z,17.93
2018-10-11T20:57:19.894Z,20.13
2018-10-11T20:59:52.523Z,15.50
2018-10-11T21:02:21.002Z,18.53
2018-10-11T21:04:50.834Z,19.73
2018-10-11T21:07:19.392Z,20.23
2018-10-11T21:09:47.878Z,16.50
2018-10-11T21:12:16.278Z,16.00
2018-10-11T21:14:46.844Z,18.10
2018-10-11T21:17:15.735Z,18.37
2018-10-11T21:19:44.320Z,18.00
2018-10-11T21:22:12.869Z,20.10
2018-10-11T21:24:41.495Z,14.47
2018-10-11T21:27:10.107Z,21.50
2018-10-11T21:29:38.671Z,15.60
2018-10-11T21:32:07.653Z,14.27
2018-10-11T21:34:36.097Z,16.87
2018-10-11T21:37:04.753Z,15.00
2018-10-11T21:39:33.347Z,15.87
2018-10-11T21:42:01.888Z,17.50
2018-10-11T21:44:31.005Z,21.57
2018-10-11T21:46:59.946Z,13.63
2018-10-11T21:49:32.579Z,14.90
2018-10-11T21:52:01.189Z,14.30
2018-10-11T21:54:29.692Z,13.93
2018-10-11T21:56:58.237Z,11.00
2018-10-11T21:59:26.825Z,13.73
2018-10-11T22:01:56.240Z,12.23
2018-10-11T22:04:24.790Z,13.87
2018-10-11T22:06:53.483Z,10.90
2018-10-11T22:09:22.056Z,12.90
2018-10-11T22:11:50.533Z,10.80
2018-10-11T22:14:18.973Z,11.90
2018-10-11T22:16:47.486Z,10.13
2018-10-11T22:19:17.989Z,15.03
2018-10-11T22:21:46.493Z,11.70
2018-10-11T22:24:15.018Z,12.60
2018-10-11T22:26:43.506Z,12.50
2018-10-11T22:29:12.117Z,14.63
2018-10-11T22:31:40.548Z,13.90
2018-10-11T22:34:09.067Z,10.60
2018-10-11T22:36:37.823Z,11.80
2018-10-11T22:39:08.466Z,14.73
2018-10-11T22:41:38.135Z,10.73
2018-10-11T22:44:07.001Z,19.07
2018-10-11T22:46:35.519Z,11.53
2018-10-11T22:49:05.198Z,11.70
2018-10-11T22:51:34.027Z,13.07
2018-10-11T22:54:02.997Z,14.20
2018-10-11T22:56:31.526Z,13.23
2018-10-11T22:59:00.319Z,11.30
2018-10-11T23:01:29.955Z,12.40
2018-10-11T23:03:58.595Z,13.83
2018-10-11T23:06:27.169Z,12.67
2018-10-11T23:08:55.844Z,11.87
2018-10-11T23:11:25.788Z,12.87
2018-10-11T23:13:54.461Z,13.80
2018-10-11T23:16:24.282Z,14.70
2018-10-11T23:18:52.878Z,13.77
2018-10-11T23:21:22.489Z,12.50
2018-10-11T23:23:52.727Z,12.70
2018-10-11T23:26:22.465Z,15.73
2018-10-11T23:28:50.982Z,12.50
2018-10-11T23:31:20.627Z,12.67
2018-10-11T23:33:49.195Z,19.30
2018-10-11T23:36:17.689Z,12.17
2018-10-11T23:38:46.897Z,14.07
2018-10-11T23:41:15.465Z,12.73
2018-10-11T23:43:45.556Z,16.60
2018-10-11T23:46:15.108Z,14.37
2018-10-11T23:48:43.715Z,14.13
2018-10-11T23:51:12.344Z,13.43
2018-10-11T23:53:40.789Z,14.40
2018-10-11T23:56:10.285Z,17.77
2018-10-11T23:58:38.866Z,19.23
